EDDH/HAM METAR and TAF weather

Enter ICAO airport designator
Station Type Date Time Source
EDDH METAR 2019/06/26 16:50 UTC NOAA

EDDH 261650Z 29015KT 260V320 9999 FEW019 21/15 Q1023 TEMPO 29015G25KT


Station Type Date Time Source
EDDH Decoded METAR 2019/06/26 16:50 UTC NOAA

Hamburg-Fuhlsbuettel, Germany (EDDH) 53-38N 010-00E 15M
Jun 26, 2019 - 12:50 PM EDT / 2019.06.26 1650 UTC
Wind: from the WNW (290 degrees) at 17 MPH (15 KT) (direction variable):0
Visibility: greater than 7 mile(s):0
Sky conditions: mostly clear
Temperature: 69 F (21 C)
Dew Point: 59 F (15 C)
Relative Humidity: 68%
Pressure (altimeter): 30.21 in. Hg (1023 hPa)
ob: EDDH 261650Z 29015KT 260V320 9999 FEW019 21/15 Q1023 TEMPO 29015G25KT
cycle: 17

Station Type Date Time Source
EDDH TAF 2019/06/26 12:27 UTC NOAA

TAF EDDH 261100Z 2612/2718 28015G25KT CAVOK
BECMG 2618/2620 31008KT
BECMG 2620/2623 BKN012 PROB30
TEMPO 2703/2705 BKN008
BECMG 2705/2707 SCT020
BECMG 2709/2711 30015G25KT

Example: see airport list